sensor_id;sensor_type;location;lat;lon;timestamp;P1;durP1;ratioP1;P2;durP2;ratioP2
63089;SDS011;49174;43.198;27.824;2022-09-20T00:01:18;3.42;;;0.95;;
63089;SDS011;49174;43.198;27.824;2022-09-20T00:03:46;2.15;;;1.10;;
63089;SDS011;49174;43.198;27.824;2022-09-20T00:06:14;1.20;;;0.80;;
63089;SDS011;49174;43.198;27.824;2022-09-20T00:08:41;3.05;;;0.95;;
63089;SDS011;49174;43.198;27.824;2022-09-20T00:11:08;3.38;;;0.80;;
63089;SDS011;49174;43.198;27.824;2022-09-20T00:13:37;1.15;;;0.80;;
63089;SDS011;49174;43.198;27.824;2022-09-20T00:16:05;5.68;;;1.10;;
63089;SDS011;49174;43.198;27.824;2022-09-20T00:18:32;2.15;;;0.90;;
63089;SDS011;49174;43.198;27.824;2022-09-20T00:20:58;2.53;;;0.95;;
63089;SDS011;49174;43.198;27.824;2022-09-20T00:23:25;3.08;;;0.85;;
63089;SDS011;49174;43.198;27.824;2022-09-20T00:25:54;2.58;;;0.77;;
63089;SDS011;49174;43.198;27.824;2022-09-20T00:28:24;1.73;;;0.60;;
63089;SDS011;49174;43.198;27.824;2022-09-20T00:30:50;1.48;;;0.80;;
63089;SDS011;49174;43.198;27.824;2022-09-20T00:33:17;4.00;;;1.10;;
63089;SDS011;49174;43.198;27.824;2022-09-20T00:35:43;2.15;;;0.65;;
63089;SDS011;49174;43.198;27.824;2022-09-20T00:38:09;1.23;;;0.80;;
63089;SDS011;49174;43.198;27.824;2022-09-20T00:40:37;0.70;;;0.60;;
63089;SDS011;49174;43.198;27.824;2022-09-20T00:43:04;0.82;;;0.50;;
63089;SDS011;49174;43.198;27.824;2022-09-20T00:45:29;1.80;;;0.88;;
63089;SDS011;49174;43.198;27.824;2022-09-20T00:48:00;0.73;;;0.60;;
63089;SDS011;49174;43.198;27.824;2022-09-20T00:55:40;0.50;;;0.50;;
63089;SDS011;49174;43.198;27.824;2022-09-20T00:58:09;1.85;;;0.80;;
63089;SDS011;49174;43.198;27.824;2022-09-20T01:00:36;2.58;;;0.60;;
63089;SDS011;49174;43.198;27.824;2022-09-20T01:03:04;1.80;;;0.88;;
63089;SDS011;49174;43.198;27.824;2022-09-20T01:05:33;1.38;;;0.70;;
63089;SDS011;49174;43.198;27.824;2022-09-20T01:07:59;3.33;;;0.88;;
63089;SDS011;49174;43.198;27.824;2022-09-20T01:10:25;0.60;;;0.60;;
63089;SDS011;49174;43.198;27.824;2022-09-20T01:12:51;2.90;;;0.50;;
63089;SDS011;49174;43.198;27.824;2022-09-20T01:15:18;1.75;;;0.70;;
63089;SDS011;49174;43.198;27.824;2022-09-20T01:17:46;1.48;;;0.70;;
63089;SDS011;49174;43.198;27.824;2022-09-20T01:20:16;1.33;;;0.70;;
63089;SDS011;49174;43.198;27.824;2022-09-20T01:28:37;3.92;;;0.70;;
63089;SDS011;49174;43.198;27.824;2022-09-20T01:33:53;1.95;;;0.70;;
63089;SDS011;49174;43.198;27.824;2022-09-20T01:36:25;1.38;;;0.70;;
63089;SDS011;49174;43.198;27.824;2022-09-20T01:39:15;1.45;;;0.82;;
63089;SDS011;49174;43.198;27.824;2022-09-20T01:41:56;0.95;;;0.65;;
63089;SDS011;49174;43.198;27.824;2022-09-20T02:01:23;0.50;;;0.50;;
63089;SDS011;49174;43.198;27.824;2022-09-20T02:40:45;2.00;;;0.60;;
63089;SDS011;49174;43.198;27.824;2022-09-20T02:43:27;2.35;;;0.43;;
63089;SDS011;49174;43.198;27.824;2022-09-20T02:46:17;2.65;;;0.60;;
63089;SDS011;49174;43.198;27.824;2022-09-20T02:51:42;0.45;;;0.45;;
63089;SDS011;49174;43.198;27.824;2022-09-20T02:59:58;0.50;;;0.50;;
63089;SDS011;49174;43.198;27.824;2022-09-20T03:05:21;1.27;;;0.60;;
63089;SDS011;49174;43.198;27.824;2022-09-20T03:18:56;1.52;;;0.95;;
63089;SDS011;49174;43.198;27.824;2022-09-20T03:21:51;1.60;;;0.70;;
63089;SDS011;49174;43.198;27.824;2022-09-20T03:27:18;4.28;;;1.05;;
63089;SDS011;49174;43.198;27.824;2022-09-20T03:41:06;0.70;;;0.70;;
63089;SDS011;49174;43.198;27.824;2022-09-20T03:46:45;1.65;;;0.70;;
63089;SDS011;49174;43.198;27.824;2022-09-20T03:52:19;1.40;;;1.05;;
63089;SDS011;49174;43.198;27.824;2022-09-20T03:54:58;1.67;;;1.02;;
63089;SDS011;49174;43.198;27.824;2022-09-20T03:57:41;0.98;;;0.82;;
63089;SDS011;49174;43.198;27.824;2022-09-20T04:11:15;3.17;;;1.00;;
63089;SDS011;49174;43.198;27.824;2022-09-20T04:16:55;5.80;;;3.72;;
63089;SDS011;49174;43.198;27.824;2022-09-20T04:22:06;1.10;;;0.82;;
63089;SDS011;49174;43.198;27.824;2022-09-20T04:24:39;1.70;;;1.20;;
63089;SDS011;49174;43.198;27.824;2022-09-20T04:30:15;1.70;;;1.20;;
63089;SDS011;49174;43.198;27.824;2022-09-20T04:38:43;1.30;;;1.20;;
63089;SDS011;49174;43.198;27.824;2022-09-20T04:41:30;4.70;;;1.30;;
63089;SDS011;49174;43.198;27.824;2022-09-20T05:00:49;1.55;;;1.10;;
63089;SDS011;49174;43.198;27.824;2022-09-20T05:09:40;2.15;;;1.30;;
63089;SDS011;49174;43.198;27.824;2022-09-20T05:15:20;5.93;;;2.65;;
63089;SDS011;49174;43.198;27.824;2022-09-20T05:23:23;2.03;;;1.20;;
63089;SDS011;49174;43.198;27.824;2022-09-20T05:29:01;1.80;;;1.23;;
63089;SDS011;49174;43.198;27.824;2022-09-20T05:34:32;2.25;;;1.20;;
63089;SDS011;49174;43.198;27.824;2022-09-20T05:40:10;1.70;;;1.10;;
63089;SDS011;49174;43.198;27.824;2022-09-20T05:43:19;0.95;;;0.93;;
63089;SDS011;49174;43.198;27.824;2022-09-20T05:46:09;0.95;;;0.88;;
63089;SDS011;49174;43.198;27.824;2022-09-20T05:49:11;1.52;;;1.02;;
63089;SDS011;49174;43.198;27.824;2022-09-20T06:00:01;1.30;;;0.90;;
63089;SDS011;49174;43.198;27.824;2022-09-20T06:11:26;2.17;;;1.20;;
63089;SDS011;49174;43.198;27.824;2022-09-20T06:19:43;1.15;;;1.00;;
63089;SDS011;49174;43.198;27.824;2022-09-20T06:22:54;2.22;;;1.13;;
63089;SDS011;49174;43.198;27.824;2022-09-20T06:28:05;2.55;;;1.27;;
63089;SDS011;49174;43.198;27.824;2022-09-20T06:30:46;2.13;;;1.17;;
63089;SDS011;49174;43.198;27.824;2022-09-20T06:33:18;1.13;;;1.02;;
63089;SDS011;49174;43.198;27.824;2022-09-20T06:35:52;7.18;;;2.58;;
63089;SDS011;49174;43.198;27.824;2022-09-20T06:41:13;1.15;;;1.00;;
63089;SDS011;49174;43.198;27.824;2022-09-20T06:43:56;0.98;;;0.88;;
63089;SDS011;49174;43.198;27.824;2022-09-20T06:46:32;3.42;;;1.20;;
63089;SDS011;49174;43.198;27.824;2022-09-20T06:49:00;2.78;;;1.92;;
63089;SDS011;49174;43.198;27.824;2022-09-20T06:51:27;2.70;;;1.30;;
63089;SDS011;49174;43.198;27.824;2022-09-20T06:53:57;1.33;;;1.00;;
63089;SDS011;49174;43.198;27.824;2022-09-20T06:56:24;1.27;;;1.00;;
63089;SDS011;49174;43.198;27.824;2022-09-20T06:58:53;1.60;;;1.10;;
63089;SDS011;49174;43.198;27.824;2022-09-20T07:01:19;1.70;;;1.10;;
63089;SDS011;49174;43.198;27.824;2022-09-20T07:03:45;1.38;;;1.23;;
63089;SDS011;49174;43.198;27.824;2022-09-20T07:06:11;2.17;;;1.63;;
63089;SDS011;49174;43.198;27.824;2022-09-20T07:08:37;6.43;;;1.13;;
63089;SDS011;49174;43.198;27.824;2022-09-20T07:11:06;1.42;;;1.00;;
63089;SDS011;49174;43.198;27.824;2022-09-20T07:13:36;1.95;;;1.30;;
63089;SDS011;49174;43.198;27.824;2022-09-20T07:16:02;5.18;;;1.65;;
63089;SDS011;49174;43.198;27.824;2022-09-20T07:18:30;2.88;;;1.50;;
63089;SDS011;49174;43.198;27.824;2022-09-20T07:20:58;1.58;;;0.98;;
63089;SDS011;49174;43.198;27.824;2022-09-20T07:23:25;0.95;;;0.80;;
63089;SDS011;49174;43.198;27.824;2022-09-20T07:25:51;2.72;;;1.38;;
63089;SDS011;49174;43.198;27.824;2022-09-20T07:28:17;2.85;;;1.10;;
63089;SDS011;49174;43.198;27.824;2022-09-20T07:30:45;2.42;;;0.95;;
63089;SDS011;49174;43.198;27.824;2022-09-20T07:33:12;2.03;;;1.27;;
63089;SDS011;49174;43.198;27.824;2022-09-20T07:35:44;1.20;;;0.90;;
63089;SDS011;49174;43.198;27.824;2022-09-20T07:38:10;3.63;;;0.90;;
63089;SDS011;49174;43.198;27.824;2022-09-20T07:40:37;1.98;;;0.98;;
63089;SDS011;49174;43.198;27.824;2022-09-20T07:43:02;1.83;;;0.90;;
63089;SDS011;49174;43.198;27.824;2022-09-20T07:45:28;2.78;;;1.20;;
63089;SDS011;49174;43.198;27.824;2022-09-20T07:47:58;3.50;;;1.10;;
63089;SDS011;49174;43.198;27.824;2022-09-20T07:50:23;1.52;;;1.02;;
63089;SDS011;49174;43.198;27.824;2022-09-20T07:52:49;1.80;;;1.20;;
63089;SDS011;49174;43.198;27.824;2022-09-20T07:55:15;4.32;;;1.10;;
63089;SDS011;49174;43.198;27.824;2022-09-20T07:57:41;5.85;;;1.10;;
63089;SDS011;49174;43.198;27.824;2022-09-20T08:00:07;2.22;;;1.20;;
63089;SDS011;49174;43.198;27.824;2022-09-20T08:02:34;2.47;;;1.00;;
63089;SDS011;49174;43.198;27.824;2022-09-20T08:05:00;2.28;;;0.90;;
63089;SDS011;49174;43.198;27.824;2022-09-20T08:07:25;2.97;;;1.23;;
63089;SDS011;49174;43.198;27.824;2022-09-20T08:09:51;1.70;;;0.90;;
63089;SDS011;49174;43.198;27.824;2022-09-20T08:12:16;1.45;;;1.00;;
63089;SDS011;49174;43.198;27.824;2022-09-20T08:14:44;2.08;;;1.05;;
63089;SDS011;49174;43.198;27.824;2022-09-20T08:17:10;1.38;;;0.90;;
63089;SDS011;49174;43.198;27.824;2022-09-20T08:19:35;0.85;;;0.82;;
63089;SDS011;49174;43.198;27.824;2022-09-20T08:22:04;1.27;;;1.00;;
63089;SDS011;49174;43.198;27.824;2022-09-20T08:24:30;2.17;;;1.10;;
63089;SDS011;49174;43.198;27.824;2022-09-20T08:26:56;3.15;;;0.90;;
63089;SDS011;49174;43.198;27.824;2022-09-20T08:29:23;2.45;;;0.85;;
63089;SDS011;49174;43.198;27.824;2022-09-20T08:31:49;2.25;;;0.90;;
63089;SDS011;49174;43.198;27.824;2022-09-20T08:34:16;1.05;;;0.82;;
63089;SDS011;49174;43.198;27.824;2022-09-20T08:36:43;1.10;;;0.80;;
63089;SDS011;49174;43.198;27.824;2022-09-20T08:39:11;6.85;;;0.90;;
63089;SDS011;49174;43.198;27.824;2022-09-20T08:47:13;2.30;;;1.20;;
63089;SDS011;49174;43.198;27.824;2022-09-20T08:49:44;0.60;;;0.55;;
63089;SDS011;49174;43.198;27.824;2022-09-20T08:52:13;1.02;;;0.60;;
63089;SDS011;49174;43.198;27.824;2022-09-20T08:55:13;1.45;;;0.65;;
63089;SDS011;49174;43.198;27.824;2022-09-20T08:57:48;1.40;;;0.60;;
63089;SDS011;49174;43.198;27.824;2022-09-20T09:00:18;3.42;;;1.05;;
63089;SDS011;49174;43.198;27.824;2022-09-20T09:02:45;0.68;;;0.60;;
63089;SDS011;49174;43.198;27.824;2022-09-20T09:07:58;0.95;;;0.60;;
63089;SDS011;49174;43.198;27.824;2022-09-20T09:10:29;1.75;;;0.80;;
63089;SDS011;49174;43.198;27.824;2022-09-20T09:13:00;1.27;;;0.65;;
63089;SDS011;49174;43.198;27.824;2022-09-20T09:15:29;1.05;;;0.70;;
63089;SDS011;49174;43.198;27.824;2022-09-20T09:17:57;1.20;;;0.55;;
63089;SDS011;49174;43.198;27.824;2022-09-20T09:20:23;0.82;;;0.55;;
63089;SDS011;49174;43.198;27.824;2022-09-20T09:22:57;0.65;;;0.60;;
63089;SDS011;49174;43.198;27.824;2022-09-20T09:25:32;0.77;;;0.52;;
63089;SDS011;49174;43.198;27.824;2022-09-20T09:30:35;1.13;;;0.68;;
63089;SDS011;49174;43.198;27.824;2022-09-20T09:38:21;0.60;;;0.50;;
63089;SDS011;49174;43.198;27.824;2022-09-20T09:40:50;0.43;;;0.43;;
63089;SDS011;49174;43.198;27.824;2022-09-20T09:43:25;2.60;;;0.57;;
63089;SDS011;49174;43.198;27.824;2022-09-20T09:45:55;0.55;;;0.52;;
63089;SDS011;49174;43.198;27.824;2022-09-20T09:48:39;0.30;;;0.30;;
63089;SDS011;49174;43.198;27.824;2022-09-20T09:51:09;1.33;;;0.55;;
63089;SDS011;49174;43.198;27.824;2022-09-20T09:53:37;0.40;;;0.40;;
63089;SDS011;49174;43.198;27.824;2022-09-20T10:01:44;0.95;;;0.40;;
63089;SDS011;49174;43.198;27.824;2022-09-20T10:04:30;0.65;;;0.50;;
63089;SDS011;49174;43.198;27.824;2022-09-20T10:15:29;1.38;;;0.50;;
63089;SDS011;49174;43.198;27.824;2022-09-20T10:34:37;0.60;;;0.50;;
63089;SDS011;49174;43.198;27.824;2022-09-20T10:39:37;4.45;;;0.40;;
63089;SDS011;49174;43.198;27.824;2022-09-20T10:47:50;0.85;;;0.60;;
63089;SDS011;49174;43.198;27.824;2022-09-20T10:50:35;2.90;;;0.63;;
63089;SDS011;49174;43.198;27.824;2022-09-20T10:55:46;1.67;;;0.47;;
63089;SDS011;49174;43.198;27.824;2022-09-20T11:04:23;1.50;;;0.35;;
63089;SDS011;49174;43.198;27.824;2022-09-20T11:09:41;0.80;;;0.50;;
63089;SDS011;49174;43.198;27.824;2022-09-20T11:12:12;0.30;;;0.30;;
63089;SDS011;49174;43.198;27.824;2022-09-20T11:14:50;0.47;;;0.47;;
63089;SDS011;49174;43.198;27.824;2022-09-20T11:17:25;1.35;;;0.70;;
63089;SDS011;49174;43.198;27.824;2022-09-20T11:20:56;0.57;;;0.57;;
63089;SDS011;49174;43.198;27.824;2022-09-20T11:28:47;0.57;;;0.40;;
63089;SDS011;49174;43.198;27.824;2022-09-20T11:31:22;0.50;;;0.50;;
63089;SDS011;49174;43.198;27.824;2022-09-20T11:36:46;0.55;;;0.55;;
63089;SDS011;49174;43.198;27.824;2022-09-20T11:41:50;1.83;;;0.68;;
63089;SDS011;49174;43.198;27.824;2022-09-20T11:44:19;0.75;;;0.52;;
63089;SDS011;49174;43.198;27.824;2022-09-20T11:46:54;0.65;;;0.57;;
63089;SDS011;49174;43.198;27.824;2022-09-20T11:57:43;0.70;;;0.60;;
63089;SDS011;49174;43.198;27.824;2022-09-20T12:00:10;0.60;;;0.55;;
63089;SDS011;49174;43.198;27.824;2022-09-20T12:02:40;0.75;;;0.50;;
63089;SDS011;49174;43.198;27.824;2022-09-20T12:05:23;0.52;;;0.40;;
63089;SDS011;49174;43.198;27.824;2022-09-20T12:07:51;2.88;;;0.60;;
63089;SDS011;49174;43.198;27.824;2022-09-20T12:12:59;4.55;;;0.93;;
63089;SDS011;49174;43.198;27.824;2022-09-20T12:15:34;1.42;;;0.82;;
63089;SDS011;49174;43.198;27.824;2022-09-20T12:18:05;1.67;;;0.50;;
63089;SDS011;49174;43.198;27.824;2022-09-20T12:28:50;2.65;;;0.70;;
63089;SDS011;49174;43.198;27.824;2022-09-20T12:36:39;1.75;;;0.57;;
63089;SDS011;49174;43.198;27.824;2022-09-20T12:41:46;1.95;;;0.50;;
63089;SDS011;49174;43.198;27.824;2022-09-20T12:44:46;1.40;;;0.60;;
63089;SDS011;49174;43.198;27.824;2022-09-20T13:08:13;2.45;;;0.73;;
63089;SDS011;49174;43.198;27.824;2022-09-20T13:11:28;0.77;;;0.68;;
63089;SDS011;49174;43.198;27.824;2022-09-20T13:16:25;0.57;;;0.55;;
63089;SDS011;49174;43.198;27.824;2022-09-20T13:19:24;0.43;;;0.43;;
63089;SDS011;49174;43.198;27.824;2022-09-20T13:24:50;5.63;;;0.68;;
63089;SDS011;49174;43.198;27.824;2022-09-20T13:27:21;2.42;;;0.40;;
63089;SDS011;49174;43.198;27.824;2022-09-20T13:29:50;3.20;;;1.02;;
63089;SDS011;49174;43.198;27.824;2022-09-20T13:32:29;0.82;;;0.50;;
63089;SDS011;49174;43.198;27.824;2022-09-20T13:37:53;1.10;;;0.63;;
63089;SDS011;49174;43.198;27.824;2022-09-20T13:40:49;1.02;;;0.60;;
63089;SDS011;49174;43.198;27.824;2022-09-20T13:45:49;1.20;;;0.50;;
63089;SDS011;49174;43.198;27.824;2022-09-20T13:48:22;0.60;;;0.60;;
63089;SDS011;49174;43.198;27.824;2022-09-20T13:50:50;3.20;;;0.60;;
63089;SDS011;49174;43.198;27.824;2022-09-20T13:53:16;1.70;;;0.50;;
63089;SDS011;49174;43.198;27.824;2022-09-20T13:55:42;0.52;;;0.50;;
63089;SDS011;49174;43.198;27.824;2022-09-20T14:01:23;0.93;;;0.52;;
63089;SDS011;49174;43.198;27.824;2022-09-20T14:03:49;1.95;;;0.65;;
63089;SDS011;49174;43.198;27.824;2022-09-20T14:06:16;1.25;;;0.70;;
63089;SDS011;49174;43.198;27.824;2022-09-20T14:08:46;0.40;;;0.40;;
63089;SDS011;49174;43.198;27.824;2022-09-20T14:11:16;1.42;;;0.50;;
63089;SDS011;49174;43.198;27.824;2022-09-20T14:13:45;1.20;;;0.93;;
63089;SDS011;49174;43.198;27.824;2022-09-20T14:16:14;0.95;;;0.60;;
63089;SDS011;49174;43.198;27.824;2022-09-20T14:18:42;0.65;;;0.43;;
63089;SDS011;49174;43.198;27.824;2022-09-20T14:21:11;1.55;;;0.50;;
63089;SDS011;49174;43.198;27.824;2022-09-20T14:23:49;1.05;;;0.57;;
63089;SDS011;49174;43.198;27.824;2022-09-20T14:28:50;2.75;;;0.60;;
63089;SDS011;49174;43.198;27.824;2022-09-20T14:31:17;0.47;;;0.43;;
63089;SDS011;49174;43.198;27.824;2022-09-20T14:33:45;1.58;;;0.50;;
63089;SDS011;49174;43.198;27.824;2022-09-20T14:36:17;0.55;;;0.45;;
63089;SDS011;49174;43.198;27.824;2022-09-20T14:38:46;0.65;;;0.45;;
63089;SDS011;49174;43.198;27.824;2022-09-20T14:41:12;0.45;;;0.40;;
63089;SDS011;49174;43.198;27.824;2022-09-20T14:43:52;0.50;;;0.50;;
63089;SDS011;49174;43.198;27.824;2022-09-20T14:46:26;0.82;;;0.57;;
63089;SDS011;49174;43.198;27.824;2022-09-20T14:48:54;0.88;;;0.52;;
63089;SDS011;49174;43.198;27.824;2022-09-20T14:51:43;0.80;;;0.80;;
63089;SDS011;49174;43.198;27.824;2022-09-20T14:56:35;2.03;;;0.50;;
63089;SDS011;49174;43.198;27.824;2022-09-20T15:02:07;0.47;;;0.43;;
63089;SDS011;49174;43.198;27.824;2022-09-20T15:04:37;1.48;;;0.70;;
63089;SDS011;49174;43.198;27.824;2022-09-20T15:07:05;5.05;;;0.70;;
63089;SDS011;49174;43.198;27.824;2022-09-20T15:09:34;1.73;;;0.50;;
63089;SDS011;49174;43.198;27.824;2022-09-20T15:12:04;0.43;;;0.43;;
63089;SDS011;49174;43.198;27.824;2022-09-20T15:14:31;0.60;;;0.45;;
63089;SDS011;49174;43.198;27.824;2022-09-20T15:16:57;0.60;;;0.43;;
63089;SDS011;49174;43.198;27.824;2022-09-20T15:19:24;1.15;;;0.40;;
63089;SDS011;49174;43.198;27.824;2022-09-20T15:21:50;1.30;;;0.50;;
63089;SDS011;49174;43.198;27.824;2022-09-20T15:24:15;0.65;;;0.40;;
63089;SDS011;49174;43.198;27.824;2022-09-20T15:26:43;1.05;;;0.40;;
63089;SDS011;49174;43.198;27.824;2022-09-20T15:29:12;1.08;;;0.50;;
63089;SDS011;49174;43.198;27.824;2022-09-20T15:31:40;0.85;;;0.50;;
63089;SDS011;49174;43.198;27.824;2022-09-20T15:34:06;1.27;;;0.60;;
63089;SDS011;49174;43.198;27.824;2022-09-20T15:36:32;1.98;;;0.65;;
63089;SDS011;49174;43.198;27.824;2022-09-20T15:38:57;0.40;;;0.40;;
63089;SDS011;49174;43.198;27.824;2022-09-20T15:41:23;1.65;;;0.60;;
63089;SDS011;49174;43.198;27.824;2022-09-20T15:43:48;0.40;;;0.40;;
63089;SDS011;49174;43.198;27.824;2022-09-20T15:46:21;2.58;;;0.50;;
63089;SDS011;49174;43.198;27.824;2022-09-20T15:48:48;1.33;;;0.40;;
63089;SDS011;49174;43.198;27.824;2022-09-20T15:51:14;7.30;;;0.60;;
63089;SDS011;49174;43.198;27.824;2022-09-20T15:56:42;9.95;;;1.17;;
63089;SDS011;49174;43.198;27.824;2022-09-20T15:59:03;6.10;;;0.90;;
63089;SDS011;49174;43.198;27.824;2022-09-20T16:01:40;6.25;;;0.80;;
63089;SDS011;49174;43.198;27.824;2022-09-20T16:04:08;4.10;;;0.57;;
63089;SDS011;49174;43.198;27.824;2022-09-20T16:06:35;5.82;;;1.05;;
63089;SDS011;49174;43.198;27.824;2022-09-20T16:09:01;0.75;;;0.50;;
63089;SDS011;49174;43.198;27.824;2022-09-20T16:11:28;1.33;;;0.85;;
63089;SDS011;49174;43.198;27.824;2022-09-20T16:13:54;1.60;;;0.80;;
63089;SDS011;49174;43.198;27.824;2022-09-20T16:16:24;0.40;;;0.40;;
63089;SDS011;49174;43.198;27.824;2022-09-20T16:18:50;1.25;;;0.52;;
63089;SDS011;49174;43.198;27.824;2022-09-20T16:21:38;2.22;;;0.60;;
63089;SDS011;49174;43.198;27.824;2022-09-20T16:24:05;1.08;;;0.55;;
63089;SDS011;49174;43.198;27.824;2022-09-20T16:26:31;1.77;;;1.25;;
63089;SDS011;49174;43.198;27.824;2022-09-20T16:28:58;2.03;;;1.17;;
63089;SDS011;49174;43.198;27.824;2022-09-20T16:34:12;1.15;;;0.63;;
63089;SDS011;49174;43.198;27.824;2022-09-20T16:36:56;0.65;;;0.52;;
63089;SDS011;49174;43.198;27.824;2022-09-20T16:39:24;2.05;;;0.50;;
63089;SDS011;49174;43.198;27.824;2022-09-20T16:41:52;0.45;;;0.45;;
63089;SDS011;49174;43.198;27.824;2022-09-20T16:44:32;1.45;;;0.43;;
63089;SDS011;49174;43.198;27.824;2022-09-20T16:47:00;2.63;;;0.77;;
63089;SDS011;49174;43.198;27.824;2022-09-20T16:49:25;1.60;;;0.82;;
63089;SDS011;49174;43.198;27.824;2022-09-20T16:51:52;3.03;;;0.80;;
63089;SDS011;49174;43.198;27.824;2022-09-20T16:54:17;2.70;;;1.23;;
63089;SDS011;49174;43.198;27.824;2022-09-20T16:56:44;4.80;;;1.08;;
63089;SDS011;49174;43.198;27.824;2022-09-20T16:59:11;1.13;;;0.80;;
63089;SDS011;49174;43.198;27.824;2022-09-20T17:01:40;3.08;;;1.40;;
63089;SDS011;49174;43.198;27.824;2022-09-20T17:04:07;4.45;;;1.40;;
63089;SDS011;49174;43.198;27.824;2022-09-20T17:06:35;3.53;;;1.40;;
63089;SDS011;49174;43.198;27.824;2022-09-20T17:09:02;2.95;;;1.50;;
63089;SDS011;49174;43.198;27.824;2022-09-20T17:11:31;1.98;;;1.10;;
63089;SDS011;49174;43.198;27.824;2022-09-20T17:13:58;6.18;;;1.30;;
63089;SDS011;49174;43.198;27.824;2022-09-20T17:16:27;5.78;;;1.48;;
63089;SDS011;49174;43.198;27.824;2022-09-20T17:18:59;4.05;;;1.27;;
63089;SDS011;49174;43.198;27.824;2022-09-20T17:21:27;5.18;;;2.20;;
63089;SDS011;49174;43.198;27.824;2022-09-20T17:23:54;4.80;;;1.63;;
63089;SDS011;49174;43.198;27.824;2022-09-20T17:28:49;3.42;;;1.38;;
63089;SDS011;49174;43.198;27.824;2022-09-20T17:31:17;1.13;;;0.90;;
63089;SDS011;49174;43.198;27.824;2022-09-20T17:33:45;6.47;;;1.27;;
63089;SDS011;49174;43.198;27.824;2022-09-20T17:36:11;1.75;;;1.15;;
63089;SDS011;49174;43.198;27.824;2022-09-20T17:38:39;1.33;;;1.05;;
63089;SDS011;49174;43.198;27.824;2022-09-20T17:41:07;1.45;;;1.00;;
63089;SDS011;49174;43.198;27.824;2022-09-20T17:43:36;2.35;;;0.65;;
63089;SDS011;49174;43.198;27.824;2022-09-20T17:46:10;2.15;;;0.70;;
63089;SDS011;49174;43.198;27.824;2022-09-20T17:48:37;1.63;;;0.77;;
63089;SDS011;49174;43.198;27.824;2022-09-20T17:51:06;2.25;;;0.60;;
63089;SDS011;49174;43.198;27.824;2022-09-20T17:53:35;1.13;;;0.88;;
63089;SDS011;49174;43.198;27.824;2022-09-20T17:56:01;2.03;;;0.70;;
63089;SDS011;49174;43.198;27.824;2022-09-20T17:58:27;1.67;;;0.93;;
63089;SDS011;49174;43.198;27.824;2022-09-20T18:00:53;1.80;;;0.80;;
63089;SDS011;49174;43.198;27.824;2022-09-20T18:03:25;1.55;;;0.73;;
63089;SDS011;49174;43.198;27.824;2022-09-20T18:05:51;1.23;;;0.70;;
63089;SDS011;49174;43.198;27.824;2022-09-20T18:08:17;1.23;;;0.90;;
63089;SDS011;49174;43.198;27.824;2022-09-20T18:10:52;0.80;;;0.60;;
63089;SDS011;49174;43.198;27.824;2022-09-20T18:13:19;1.80;;;0.70;;
63089;SDS011;49174;43.198;27.824;2022-09-20T18:15:45;1.50;;;0.70;;
63089;SDS011;49174;43.198;27.824;2022-09-20T18:18:10;2.55;;;1.33;;
63089;SDS011;49174;43.198;27.824;2022-09-20T18:20:36;3.42;;;1.02;;
63089;SDS011;49174;43.198;27.824;2022-09-20T18:23:02;1.77;;;0.90;;
63089;SDS011;49174;43.198;27.824;2022-09-20T18:25:29;1.58;;;0.90;;
63089;SDS011;49174;43.198;27.824;2022-09-20T18:28:14;4.57;;;0.70;;
63089;SDS011;49174;43.198;27.824;2022-09-20T18:30:42;2.30;;;0.80;;
63089;SDS011;49174;43.198;27.824;2022-09-20T18:33:08;1.58;;;0.82;;
63089;SDS011;49174;43.198;27.824;2022-09-20T18:35:34;1.30;;;0.90;;
63089;SDS011;49174;43.198;27.824;2022-09-20T18:38:01;2.15;;;1.10;;
63089;SDS011;49174;43.198;27.824;2022-09-20T18:40:26;2.67;;;1.23;;
63089;SDS011;49174;43.198;27.824;2022-09-20T18:42:53;5.10;;;1.25;;
63089;SDS011;49174;43.198;27.824;2022-09-20T18:45:24;2.78;;;1.40;;
63089;SDS011;49174;43.198;27.824;2022-09-20T18:47:51;1.83;;;1.33;;
63089;SDS011;49174;43.198;27.824;2022-09-20T18:50:22;2.00;;;0.98;;
63089;SDS011;49174;43.198;27.824;2022-09-20T18:52:53;2.97;;;1.20;;
63089;SDS011;49174;43.198;27.824;2022-09-20T18:55:19;5.95;;;0.98;;
63089;SDS011;49174;43.198;27.824;2022-09-20T18:57:47;3.17;;;1.10;;
63089;SDS011;49174;43.198;27.824;2022-09-20T19:00:13;5.40;;;1.02;;
63089;SDS011;49174;43.198;27.824;2022-09-20T19:03:13;1.65;;;1.10;;
63089;SDS011;49174;43.198;27.824;2022-09-20T19:05:50;4.20;;;1.10;;
63089;SDS011;49174;43.198;27.824;2022-09-20T19:11:03;3.08;;;1.00;;
63089;SDS011;49174;43.198;27.824;2022-09-20T19:13:39;3.90;;;1.00;;
63089;SDS011;49174;43.198;27.824;2022-09-20T19:16:14;2.10;;;1.00;;
63089;SDS011;49174;43.198;27.824;2022-09-20T19:21:24;1.75;;;1.00;;
63089;SDS011;49174;43.198;27.824;2022-09-20T19:26:30;1.92;;;0.93;;
63089;SDS011;49174;43.198;27.824;2022-09-20T19:29:02;1.27;;;1.00;;
63089;SDS011;49174;43.198;27.824;2022-09-20T19:31:35;4.57;;;1.33;;
63089;SDS011;49174;43.198;27.824;2022-09-20T19:34:03;1.98;;;0.82;;
63089;SDS011;49174;43.198;27.824;2022-09-20T19:39:52;2.75;;;1.40;;
63089;SDS011;49174;43.198;27.824;2022-09-20T19:42:51;4.70;;;1.55;;
63089;SDS011;49174;43.198;27.824;2022-09-20T19:50:53;3.17;;;1.50;;
63089;SDS011;49174;43.198;27.824;2022-09-20T19:53:22;3.60;;;1.90;;
63089;SDS011;49174;43.198;27.824;2022-09-20T19:55:52;5.80;;;1.85;;
63089;SDS011;49174;43.198;27.824;2022-09-20T19:58:24;4.55;;;1.30;;
63089;SDS011;49174;43.198;27.824;2022-09-20T20:00:50;3.35;;;1.45;;
63089;SDS011;49174;43.198;27.824;2022-09-20T20:03:16;4.40;;;1.13;;
63089;SDS011;49174;43.198;27.824;2022-09-20T20:05:45;3.03;;;1.70;;
63089;SDS011;49174;43.198;27.824;2022-09-20T20:13:14;3.85;;;1.65;;
63089;SDS011;49174;43.198;27.824;2022-09-20T20:16:11;3.75;;;1.80;;
63089;SDS011;49174;43.198;27.824;2022-09-20T20:24:57;3.20;;;1.67;;
63089;SDS011;49174;43.198;27.824;2022-09-20T20:27:23;3.83;;;1.67;;
63089;SDS011;49174;43.198;27.824;2022-09-20T20:29:52;4.68;;;1.55;;
63089;SDS011;49174;43.198;27.824;2022-09-20T20:32:19;4.70;;;1.77;;
63089;SDS011;49174;43.198;27.824;2022-09-20T20:34:45;4.45;;;1.90;;
63089;SDS011;49174;43.198;27.824;2022-09-20T20:37:11;7.70;;;1.60;;
63089;SDS011;49174;43.198;27.824;2022-09-20T20:39:40;2.47;;;1.75;;
63089;SDS011;49174;43.198;27.824;2022-09-20T20:42:05;4.70;;;1.67;;
63089;SDS011;49174;43.198;27.824;2022-09-20T20:44:33;3.75;;;1.90;;
63089;SDS011;49174;43.198;27.824;2022-09-20T20:47:02;3.88;;;2.10;;
63089;SDS011;49174;43.198;27.824;2022-09-20T20:49:28;6.60;;;2.30;;
63089;SDS011;49174;43.198;27.824;2022-09-20T20:51:54;3.70;;;1.75;;
63089;SDS011;49174;43.198;27.824;2022-09-20T20:54:21;6.22;;;2.10;;
63089;SDS011;49174;43.198;27.824;2022-09-20T20:56:47;9.73;;;2.83;;
63089;SDS011;49174;43.198;27.824;2022-09-20T20:59:13;5.65;;;2.13;;
63089;SDS011;49174;43.198;27.824;2022-09-20T21:01:40;7.30;;;2.33;;
63089;SDS011;49174;43.198;27.824;2022-09-20T21:04:12;4.35;;;1.80;;
63089;SDS011;49174;43.198;27.824;2022-09-20T21:06:39;6.50;;;1.95;;
63089;SDS011;49174;43.198;27.824;2022-09-20T21:09:06;6.07;;;2.10;;
63089;SDS011;49174;43.198;27.824;2022-09-20T21:11:36;4.25;;;2.05;;
63089;SDS011;49174;43.198;27.824;2022-09-20T21:14:04;6.13;;;1.83;;
63089;SDS011;49174;43.198;27.824;2022-09-20T21:16:32;4.82;;;2.00;;
63089;SDS011;49174;43.198;27.824;2022-09-20T21:19:02;5.13;;;2.28;;
63089;SDS011;49174;43.198;27.824;2022-09-20T21:21:30;3.63;;;1.90;;
63089;SDS011;49174;43.198;27.824;2022-09-20T21:23:58;3.92;;;1.90;;